KQA671 HKJK-HKMO
Flight info
| Callsign | KQA671 |
|---|---|
| Flight time | N/A |
| Altitude | 29000 |
| Route | ATUDU1D UVOVA UQ135 NEREV NEREV3A |
| Aircraft | B738/M-SDE2E3FGHIRWXY/LB1 |
Departure
| Time | N/A |
|---|---|
| Airport | Jomo Kenyatta International Airport (HKJK) |
Arrival
| Time | 2026-04-20 18:32 |
|---|---|
| Airport | Moi International Airport (HKMO) |
| Time | Latitude | Longitude | Altitude | Speed | Heading |
|---|---|---|---|---|---|
| 2026-04-20 18:15 | -2.98015 | 38.84607 | 28996 ft | 501 kts | 137° |
| 2026-04-20 18:15 | -3.02950 | 38.89543 | 28996 ft | 501 kts | 137° |
| 2026-04-20 18:16 | -3.07884 | 38.94478 | 28984 ft | 501 kts | 137° |
| 2026-04-20 18:16 | -3.12804 | 38.99398 | 28332 ft | 511 kts | 137° |
| 2026-04-20 18:17 | -3.15339 | 39.01932 | 27592 ft | 518 kts | 137° |
| 2026-04-20 18:17 | -3.17882 | 39.04476 | 26847 ft | 516 kts | 137° |
| 2026-04-20 18:17 | -3.20408 | 39.07005 | 26109 ft | 511 kts | 136° |
| 2026-04-20 18:17 | -3.22904 | 39.09499 | 25366 ft | 506 kts | 137° |
| 2026-04-20 18:18 | -3.25405 | 39.11960 | 24613 ft | 495 kts | 137° |
| 2026-04-20 18:18 | -3.27802 | 39.14297 | 23858 ft | 465 kts | 137° |
| 2026-04-20 18:18 | -3.30046 | 39.16473 | 23138 ft | 436 kts | 138° |
| 2026-04-20 18:18 | -3.32141 | 39.18493 | 22531 ft | 413 kts | 138° |
| 2026-04-20 18:19 | -3.34165 | 39.20437 | 21968 ft | 398 kts | 138° |
| 2026-04-20 18:19 | -3.36143 | 39.22330 | 21412 ft | 388 kts | 139° |
| 2026-04-20 18:19 | -3.38081 | 39.24180 | 20861 ft | 382 kts | 139° |
| 2026-04-20 18:19 | -3.39994 | 39.26004 | 20309 ft | 377 kts | 139° |
| 2026-04-20 18:20 | -3.41857 | 39.27826 | 19757 ft | 373 kts | 135° |
| 2026-04-20 18:20 | -3.43506 | 39.29813 | 19209 ft | 371 kts | 129° |
| 2026-04-20 18:20 | -3.44992 | 39.31913 | 18659 ft | 367 kts | 125° |
| 2026-04-20 18:20 | -3.46382 | 39.34043 | 18109 ft | 364 kts | 124° |
| 2026-04-20 18:21 | -3.47707 | 39.36150 | 17566 ft | 361 kts | 123° |
| 2026-04-20 18:21 | -3.49029 | 39.38271 | 17015 ft | 357 kts | 123° |
| 2026-04-20 18:21 | -3.50343 | 39.40369 | 16464 ft | 354 kts | 123° |
| 2026-04-20 18:21 | -3.51650 | 39.42434 | 15916 ft | 351 kts | 123° |
| 2026-04-20 18:22 | -3.52962 | 39.44481 | 15365 ft | 347 kts | 123° |
| 2026-04-20 18:22 | -3.54268 | 39.46493 | 14911 ft | 342 kts | 123° |
| 2026-04-20 18:22 | -3.55567 | 39.48474 | 14485 ft | 339 kts | 124° |
| 2026-04-20 18:22 | -3.56868 | 39.50441 | 14049 ft | 338 kts | 124° |
| 2026-04-20 18:23 | -3.58150 | 39.52365 | 13595 ft | 335 kts | 124° |
| 2026-04-20 18:23 | -3.59442 | 39.54295 | 13145 ft | 333 kts | 124° |
| 2026-04-20 18:23 | -3.60728 | 39.56207 | 12694 ft | 330 kts | 124° |
| 2026-04-20 18:23 | -3.62006 | 39.58104 | 12244 ft | 327 kts | 124° |
| 2026-04-20 18:24 | -3.63276 | 39.59983 | 11807 ft | 322 kts | 124° |
| 2026-04-20 18:24 | -3.64489 | 39.61776 | 11417 ft | 301 kts | 124° |
| 2026-04-20 18:24 | -3.65666 | 39.63515 | 10979 ft | 305 kts | 124° |
| 2026-04-20 18:24 | -3.66861 | 39.65281 | 10533 ft | 307 kts | 124° |
| 2026-04-20 18:25 | -3.68062 | 39.67054 | 10085 ft | 308 kts | 124° |
| 2026-04-20 18:25 | -3.69247 | 39.68802 | 9643 ft | 308 kts | 123° |
| 2026-04-20 18:25 | -3.70447 | 39.70575 | 9193 ft | 307 kts | 123° |
| 2026-04-20 18:25 | -3.71635 | 39.72328 | 8746 ft | 306 kts | 123° |
| 2026-04-20 18:26 | -3.72832 | 39.74096 | 8293 ft | 304 kts | 123° |
| 2026-04-20 18:26 | -3.74265 | 39.75645 | 7819 ft | 305 kts | 140° |
| 2026-04-20 18:26 | -3.76175 | 39.76563 | 7137 ft | 309 kts | 162° |
| 2026-04-20 18:26 | -3.78297 | 39.76675 | 6509 ft | 306 kts | 186° |
| 2026-04-20 18:27 | -3.80277 | 39.75966 | 5904 ft | 303 kts | 208° |
| 2026-04-20 18:27 | -3.81912 | 39.74657 | 5333 ft | 298 kts | 224° |
| 2026-04-20 18:27 | -3.83313 | 39.73209 | 4735 ft | 282 kts | 227° |
| 2026-04-20 18:27 | -3.84535 | 39.71883 | 4089 ft | 244 kts | 228° |
| 2026-04-20 18:28 | -3.85662 | 39.70689 | 3642 ft | 226 kts | 226° |
| 2026-04-20 18:28 | -3.86772 | 39.69619 | 3436 ft | 217 kts | 223° |
| 2026-04-20 18:28 | -3.87905 | 39.68657 | 3231 ft | 211 kts | 219° |
| 2026-04-20 18:28 | -3.89068 | 39.67787 | 3038 ft | 205 kts | 216° |
| 2026-04-20 18:29 | -3.90210 | 39.67016 | 2813 ft | 194 kts | 213° |
| 2026-04-20 18:29 | -3.91331 | 39.66312 | 2602 ft | 184 kts | 212° |
| 2026-04-20 18:29 | -3.92364 | 39.65694 | 2371 ft | 168 kts | 211° |
| 2026-04-20 18:29 | -3.93346 | 39.65122 | 2147 ft | 159 kts | 210° |
| 2026-04-20 18:30 | -3.94292 | 39.64582 | 1930 ft | 154 kts | 210° |
| 2026-04-20 18:30 | -3.95219 | 39.64057 | 1756 ft | 155 kts | 210° |
| 2026-04-20 18:30 | -3.96168 | 39.63523 | 1572 ft | 156 kts | 210° |
| 2026-04-20 18:30 | -3.97104 | 39.62999 | 1335 ft | 153 kts | 210° |
| 2026-04-20 18:31 | -3.98034 | 39.62478 | 994 ft | 152 kts | 209° |
| 2026-04-20 18:31 | -3.98937 | 39.61973 | 673 ft | 146 kts | 209° |
| 2026-04-20 18:31 | -3.99786 | 39.61498 | 491 ft | 135 kts | 209° |
| 2026-04-20 18:31 | -4.00599 | 39.61043 | 389 ft | 134 kts | 209° |
| 2026-04-20 18:32 | -4.01424 | 39.60582 | 261 ft | 137 kts | 209° |
| 2026-04-20 18:32 | -4.02169 | 39.60171 | 209 ft | 100 kts | 209° |
| 2026-04-20 18:32 | -4.02589 | 39.59927 | 209 ft | 35 kts | 210° |
| 2026-04-20 18:32 | -4.02678 | 39.59909 | 209 ft | 7 kts | 150° |
| 2026-04-20 18:33 | -4.02695 | 39.59919 | 209 ft | 0 kts | 148° |
| 2026-04-20 18:34 | -4.02698 | 39.59922 | 209 ft | 2 kts | 148° |
| 2026-04-20 18:35 | -4.02719 | 39.59935 | 209 ft | 5 kts | 147° |
| 2026-04-20 18:35 | -4.02753 | 39.59957 | 209 ft | 6 kts | 147° |
| 2026-04-20 18:35 | -4.02793 | 39.59983 | 209 ft | 7 kts | 147° |
| 2026-04-20 18:35 | -4.02821 | 39.60011 | 209 ft | 5 kts | 125° |
| 2026-04-20 18:36 | -4.02841 | 39.60045 | 209 ft | 6 kts | 119° |
| 2026-04-20 18:36 | -4.02863 | 39.60085 | 209 ft | 7 kts | 120° |
| 2026-04-20 18:36 | -4.02889 | 39.60130 | 209 ft | 6 kts | 121° |
| 2026-04-20 18:36 | -4.02907 | 39.60137 | 209 ft | 2 kts | 200° |
| 2026-04-20 18:37 | -4.02921 | 39.60131 | 209 ft | 3 kts | 203° |
| 2026-04-20 18:37 | -4.02942 | 39.60122 | 209 ft | 4 kts | 202° |
| 2026-04-20 18:37 | -4.02968 | 39.60112 | 209 ft | 4 kts | 201° |
| 2026-04-20 18:37 | -4.02974 | 39.60109 | 209 ft | 0 kts | 201° |
| 2026-04-20 18:38 | -4.02975 | 39.60109 | 209 ft | 0 kts | 201° |